Ottengruner Heide Airport


Codes: EDQO/
Name: Ottengruner Heide Airport
City: Helmbrechts
Country: Germany
Elevation: 1880 ft.

Photos at Ottengruner Heide Airport


   Photos courtesy of SpottingLog. You can add your own sightings and photos by signing up for a free trial today.



No photos found.

Weather at Ottengruner Heide Airport


Time (UTC)DescriptionTempratureWindCloud coverageVisibilityPressureHumidity
21-Feb-2024 03:00Broken Clouds4°C11 mph, SW83%10000m1024hPa96%
21-Feb-2024 06:00Overcast Clouds3°C11 mph, SW92%10000m1023hPa96%
21-Feb-2024 09:00Overcast Clouds4°C13 mph, SW100%10000m1022hPa88%
21-Feb-2024 12:00Overcast Clouds7°C13 mph, SW100%10000m1020hPa72%
21-Feb-2024 15:00Overcast Clouds7°C11 mph, SW100%10000m1017hPa74%
21-Feb-2024 18:00Overcast Clouds5°C9 mph, SW100%10000m1015hPa79%
21-Feb-2024 21:00Overcast Clouds5°C9 mph, S100%10000m1013hPa80%
22-Feb-2024 00:00Light Rain4°C16 mph, SW100%5952m1011hPa95%
22-Feb-2024 03:00Light Rain5°C18 mph, SW100%1972m1007hPa96%
22-Feb-2024 06:00Moderate Rain5°C18 mph, SW100%8339m1005hPa96%
22-Feb-2024 09:00Light Rain6°C16 mph, SW100%6044m1003hPa96%
22-Feb-2024 12:00Light Rain6°C16 mph, SW100%10000m1000hPa95%
22-Feb-2024 15:00Light Rain7°C16 mph, SW100%10000m996hPa94%
22-Feb-2024 18:00Light Rain7°C18 mph, SW100%6037m994hPa94%
22-Feb-2024 21:00Moderate Rain7°C22 mph, SW100%4915m994hPa95%
23-Feb-2024 00:00Light Rain7°C20 mph, SW100%10000m996hPa86%
23-Feb-2024 03:00Light Rain4°C13 mph, SW100%10000m998hPa86%
23-Feb-2024 06:00Light Rain2°C11 mph, SW100%10000m1001hPa89%
23-Feb-2024 09:00Light Rain3°C11 mph, SW100%10000m1002hPa82%
23-Feb-2024 12:00Overcast Clouds4°C11 mph, SW100%10000m1002hPa69%
23-Feb-2024 15:00Overcast Clouds3°C9 mph, SW100%10000m1001hPa76%
23-Feb-2024 18:00Overcast Clouds2°C4 mph, S100%10000m1002hPa85%
23-Feb-2024 21:00Overcast Clouds1°C4 mph, S100%10000m1001hPa91%
24-Feb-2024 00:00Overcast Clouds1°C4 mph, S100%10000m1000hPa93%
24-Feb-2024 03:00Overcast Clouds0°C4 mph, S100%10000m1000hPa88%
24-Feb-2024 06:00Overcast Clouds0°C7 mph, S100%6087m1002hPa93%
24-Feb-2024 09:00Overcast Clouds2°C13 mph, SW98%10000m1003hPa86%
24-Feb-2024 12:00Overcast Clouds5°C16 mph, SW99%10000m1004hPa65%
24-Feb-2024 15:00Overcast Clouds4°C11 mph, SW92%10000m1006hPa70%
24-Feb-2024 18:00Scattered Clouds1°C4 mph, S50%10000m1008hPa89%
24-Feb-2024 21:00Few Clouds1°C4 mph, SE22%10000m1008hPa86%
25-Feb-2024 00:00Broken Clouds1°C2 mph, SE61%10000m1008hPa80%
25-Feb-2024 03:00Overcast Clouds1°C4 mph, SE100%10000m1007hPa83%
25-Feb-2024 06:00Overcast Clouds0°C4 mph, SE98%10000m1008hPa85%
25-Feb-2024 09:00Few Clouds5°C7 mph, S17%10000m1008hPa67%
25-Feb-2024 12:00Scattered Clouds6°C11 mph, SW28%10000m1007hPa63%
25-Feb-2024 15:00Few Clouds5°C9 mph, W16%10000m1007hPa67%
25-Feb-2024 18:00Scattered Clouds3°C2 mph, NW49%10000m1007hPa82%
25-Feb-2024 21:00Overcast Clouds2°C2 mph, SE99%10000m1007hPa80%
26-Feb-2024 00:00Broken Clouds0°C4 mph, SE80%10000m1007hPa88%